Latest Weather Observations for Shark Bay Airport

IDW60801

Issued at 3:53 am WST Tuesday 24 September 2019 (issued every 10 minutes, with the page automatically refreshed every 10 minutes)

About weather observations | Map of weather stations | Latest weather observations for WA | Other Formats
Station Details ID: 006105 Name: SHARK BAY AIRPORT Lat: -25.89 Lon: 113.58 Height: 33.8 m
Data from the previous 72 hours. | See also: Recent months at Shark Bay Airport
Date/Time
WST
Temp
°C
App
Temp
°C
Dew
Point
°C
Rel
Hum
%
Delta-T
°C
Wind Press
QNH
hPa
Press
MSL
hPa
Rain since
9am
mm
Dir  Spd
km/h
Gust
km/h
Spd
kts
Gust
kts
24/03:30am 13.6 11.1 8.4 71 2.6 SSW 11 13 6 7 1017.7 1017.6 0.0
24/03:00am 14.5 12.2 8.9 69 2.8 S 11 15 6 8 1017.9 1017.8 0.0
24/02:30am 14.5 11.6 8.2 66 3.2 SSE 13 13 7 7 1018.0 1017.9 0.0
24/02:00am 15.9 12.9 7.9 59 4.0 SSW 13 17 7 9 1018.4 1018.4 0.0
24/01:30am 16.6 13.2 7.5 55 4.6 SSE 15 19 8 10 1018.6 1018.6 0.0
24/01:00am 16.4 13.4 7.6 56 4.4 SSE 13 17 7 9 1019.0 1019.0 0.0
24/12:30am 16.7 13.7 9.4 62 3.8 SSE 15 20 8 11 1019.3 1019.3 0.0
24/12:00am 17.0 14.4 9.2 60 4.0 SSE 13 17 7 9 1019.7 1019.7 0.0
 
Date/Time
WST
Temp
°C
App
Temp
°C
Dew
Point
°C
Rel
Hum
%
Delta-T
°C
Wind Press
QNH
hPa
Press
MSL
hPa
Rain since
9am
mm
Dir  Spd
km/h
Gust
km/h
Spd
kts
Gust
kts
23/11:30pm 17.4 14.7 9.1 58 4.3 S 13 20 7 11 1020.0 1020.0 0.0
23/11:00pm 17.6 15.2 10.0 61 4.0 S 13 20 7 11 1020.3 1020.3 0.0
23/10:30pm 17.8 15.7 12.3 70 3.0 S 15 20 8 11 1020.5 1020.5 0.0
23/10:00pm 18.1 15.6 13.4 74 2.7 S 19 24 10 13 1020.7 1020.7 0.0
23/09:30pm 18.4 15.7 13.5 73 2.8 S 20 26 11 14 1021.0 1021.0 0.0
23/09:00pm 18.6 16.2 12.6 68 3.3 S 17 24 9 13 1021.1 1021.1 0.0
23/08:30pm 18.9 16.4 12.4 66 3.6 S 17 20 9 11 1021.1 1021.1 0.0
23/08:00pm 20.1 16.9 11.1 56 4.9 SSW 19 26 10 14 1021.0 1021.0 0.0
23/07:30pm 20.5 16.8 7.8 44 6.6 SSW 17 20 9 11 1020.5 1020.5 0.0
23/07:00pm 19.9 16.6 7.9 46 6.2 WSW 15 15 8 8 1020.4 1020.4 0.0
23/06:30pm 21.6 18.1 7.1 39 7.4 WSW 15 17 8 9 1020.1 1020.1 0.0
23/06:00pm 24.3 20.2 4.1 27 10.0 WSW 15 20 8 11 1019.6 1019.6 0.0
23/05:30pm 28.6 23.3 -12.4 6 15.6 ESE 11 17 6 9 1019.2 1019.2 0.0
23/05:00pm 28.8 23.9 -12.3 6 15.6 E 9 19 5 10 1019.1 1019.1 0.0
23/04:30pm 29.2 23.9 -12.0 6 15.9 SE 11 19 6 10 1019.2 1019.2 0.0
23/04:00pm 29.7 23.7 -11.7 6 16.1 ENE 15 22 8 12 1019.3 1019.3 0.0
23/03:30pm 29.5 23.1 -11.8 6 16.0 ENE 17 30 9 16 1019.5 1019.5 0.0
23/03:00pm 29.7 22.9 -11.7 6 16.1 E 19 28 10 15 1019.8 1019.8 0.0
23/02:30pm 29.6 23.2 -11.7 6 16.0 E 17 30 9 16 1020.0 1020.0 0.0
23/02:00pm 29.8 23.5 -9.7 7 15.9 ENE 17 28 9 15 1020.3 1020.3 0.0
23/01:30pm 29.5 22.7 -9.9 7 15.8 ESE 20 33 11 18 1020.8 1020.8 0.0
23/01:00pm 29.2 22.5 -10.1 7 15.6 E 19 33 10 18 1021.3 1021.3 0.0
23/12:30pm 29.2 22.3 -10.1 7 15.6 ENE 20 32 11 17 1021.8 1021.8 0.0
23/12:00pm 29.4 21.8 -9.9 7 15.7 ENE 24 33 13 18 1022.4 1022.4 0.0
23/11:30am 27.7 20.1 -9.5 8 14.7 NE 24 33 13 18 1022.6 1022.6 0.0
23/11:00am 26.9 19.5 -7.2 10 13.9 NE 24 35 13 19 1023.1 1023.0 0.0
23/10:30am 26.0 18.7 -6.7 11 13.4 ENE 24 33 13 18 1023.5 1023.4 0.0
23/10:00am 24.8 16.7 -6.5 12 12.7 ENE 28 39 15 21 1023.6 1023.5 0.0
23/09:30am 24.5 17.1 -3.8 15 12.1 ENE 26 41 14 22 1023.6 1023.5 0.0
23/09:00am 24.4 16.8 -2.2 17 11.6 ENE 28 41 15 22 1023.5 1023.4 0.0
23/08:30am 22.7 17.1 1.1 24 10.0 ENE 20 30 11 16 1023.5 1023.4 0.0
23/08:00am 20.1 15.3 4.6 36 7.5 E 19 24 10 13 1023.4 1023.3 0.0
23/07:30am 17.6 14.4 6.8 49 5.4 E 13 15 7 8 1023.2 1023.1 0.0
23/07:00am 13.6 10.4 6.7 63 3.3 ESE 13 15 7 8 1023.0 1022.9 0.0
23/06:30am 11.3 7.5 6.0 70 2.5 E 15 15 8 8 1022.7 1022.7 0.0
23/06:00am 10.7 6.9 5.9 72 2.2 E 15 17 8 9 1022.3 1022.3 0.0
23/05:30am 13.5 9.4 6.1 61 3.5 ESE 17 20 9 11 1022.2 1022.2 0.0
23/05:00am 13.6 9.3 6.9 64 3.2 ESE 19 20 10 11 1022.2 1022.2 0.0
23/04:30am 13.8 9.5 7.1 64 3.3 ESE 19 20 10 11 1022.2 1022.2 0.0
23/04:00am 13.6 9.7 6.9 64 3.2 ESE 17 20 9 11 1022.1 1022.1 0.0
23/03:30am 13.0 9.1 7.0 67 2.9 ESE 17 20 9 11 1022.2 1022.2 0.0
23/03:00am 10.9 7.1 5.9 71 2.3 SE 15 17 8 9 1022.3 1022.3 0.0
23/02:30am 10.8 7.4 5.8 71 2.3 SSE 13 17 7 9 1022.7 1022.7 0.0
23/02:00am 11.0 7.7 6.6 74 2.1 SSE 13 15 7 8 1023.2 1023.1 0.0
23/01:30am 11.2 8.1 7.1 76 2.0 SSE 13 15 7 8 1023.4 1023.3 0.0
23/01:00am 11.8 8.8 7.7 76 2.0 SSE 13 15 7 8 1023.4 1023.3 0.0
23/12:30am 12.6 9.8 8.5 76 2.0 SE 13 15 7 8 1023.5 1023.4 0.0
23/12:00am 13.3 10.7 9.5 78 1.9 SE 13 17 7 9 1023.7 1023.6 0.0
 
Date/Time
WST
Temp
°C
App
Temp
°C
Dew
Point
°C
Rel
Hum
%
Delta-T
°C
Wind Press
QNH
hPa
Press
MSL
hPa
Rain since
9am
mm
Dir  Spd
km/h
Gust
km/h
Spd
kts
Gust
kts
22/11:30pm 14.4 11.8 10.8 79 1.9 SE 15 19 8 10 1023.9 1023.8 0.0
22/11:00pm 14.8 12.6 10.8 77 2.1 SSE 13 17 7 9 1024.1 1024.0 0.0
22/10:30pm 16.0 13.2 11.2 73 2.6 SSE 17 20 9 11 1024.1 1024.0 0.0
22/10:00pm 17.0 13.8 11.3 69 3.1 SSE 19 24 10 13 1024.0 1023.9 0.0
22/09:30pm 17.7 14.2 12.2 70 3.0 SSE 22 30 12 16 1024.1 1024.0 0.0
22/09:00pm 18.0 14.6 12.5 70 3.0 S 22 32 12 17 1024.2 1024.1 0.0
22/08:30pm 18.3 14.4 12.1 67 3.4 S 24 35 13 19 1024.0 1023.9 0.0
22/08:00pm 18.5 14.7 11.1 62 4.0 S 22 33 12 18 1023.9 1023.8 0.0
22/07:30pm 19.1 14.2 10.1 56 4.8 S 26 35 14 19 1023.7 1023.6 0.0
22/07:00pm 19.6 14.6 9.5 52 5.3 S 26 37 14 20 1023.4 1023.3 0.0
22/06:30pm 20.1 15.6 10.2 53 5.3 S 24 35 13 19 1023.1 1023.0 0.0
22/06:00pm 21.6 16.4 10.1 48 6.2 S 28 37 15 20 1022.9 1022.8 0.0
22/05:30pm 23.3 16.5 5.2 31 9.1 S 30 46 16 25 1022.3 1022.3 0.0
22/05:00pm 24.8 17.3 3.5 25 10.4 SSW 32 43 17 23 1022.0 1022.0 0.0
22/04:30pm 27.0 20.5 -5.9 11 13.8 S 20 32 11 17 1021.8 1021.8 0.0
22/04:00pm 27.8 21.3 -7.9 9 14.5 ESE 19 28 10 15 1021.7 1021.7 0.0
22/03:30pm 28.0 21.3 -7.8 9 14.7 ESE 20 37 11 20 1021.7 1021.7 0.0
22/03:00pm 28.2 21.3 -6.3 10 14.5 E 22 39 12 21 1021.7 1021.7 0.0
22/02:30pm 27.4 20.4 -6.9 10 14.2 SE 22 41 12 22 1021.9 1021.9 0.0
22/02:00pm 27.5 19.4 -6.8 10 14.2 ESE 28 41 15 22 1021.9 1021.9 0.0
22/01:30pm 27.7 20.2 -8.0 9 14.5 E 24 37 13 20 1022.1 1022.1 0.0
22/01:00pm 28.4 21.5 -6.1 10 14.6 E 22 41 12 22 1022.6 1022.6 0.0
22/12:30pm 27.6 20.0 -5.5 11 14.1 E 26 37 14 20 1023.2 1023.1 0.0
22/12:03pm 26.9 19.0 -4.9 12 13.6 E 28 46 15 25 1023.6 1023.5 0.0
22/12:00pm 26.4 17.7 -5.3 12 13.3 E 32 46 17 25 1023.6 1023.5 0.0
22/11:44am 26.1 18.2 -4.4 13 13.1 E 28 46 15 25 1023.7 1023.6 0.0
22/11:30am 25.6 17.3 -4.8 13 12.9 E 30 44 16 24 1023.8 1023.7 0.0
22/11:15am 26.4 18.7 -3.2 14 13.0 E 28 46 15 25 1024.0 1023.9 0.0
22/11:00am 25.9 17.6 -4.6 13 12.9 ENE 30 43 16 23 1024.1 1024.0 0.0
22/10:30am 24.6 15.8 -4.6 14 12.3 E 33 46 18 25 1024.4 1024.3 0.0
22/10:00am 23.7 14.7 -2.8 17 11.4 E 35 50 19 27 1024.7 1024.6 0.0
22/09:30am 22.3 13.7 -2.4 19 10.6 E 33 46 18 25 1025.0 1024.9 0.0
22/09:00am 21.4 13.1 -1.8 21 10.0 ESE 32 48 17 26 1025.2 1025.1 0.0
22/08:59am 21.7 13.9 -0.9 22 10.0 E 30 48 16 26 1025.1 1025.0 0.0
22/08:30am 21.2 13.0 -0.7 23 9.6 E 32 43 17 23 1024.8 1024.7 0.0
22/08:00am 20.3 12.7 0.7 27 8.8 E 30 43 16 23 1024.7 1024.6 0.0
22/07:30am 18.7 12.0 1.7 32 7.7 ESE 26 39 14 21 1024.7 1024.6 0.0
22/07:00am 16.9 10.8 2.5 38 6.5 ESE 24 35 13 19 1024.4 1024.3 0.0
22/06:30am 15.2 9.6 3.7 46 5.3 ESE 22 28 12 15 1024.0 1023.9 0.0
22/06:00am 14.8 9.2 3.6 47 5.1 ESE 22 32 12 17 1023.6 1023.5 0.0
22/05:30am 14.4 9.0 4.4 51 4.6 ESE 22 28 12 15 1023.4 1023.3 0.0
22/05:00am 14.5 9.4 4.2 50 4.7 ESE 20 28 11 15 1023.1 1023.0 0.0
22/04:30am 14.8 9.3 3.9 48 5.0 SE 22 30 12 16 1022.7 1022.7 0.0
22/04:00am 15.3 10.3 4.4 48 5.1 SE 20 28 11 15 1022.3 1022.3 0.0
22/03:30am 15.1 10.3 4.5 49 4.9 SE 19 24 10 13 1021.9 1021.9 0.0
22/03:00am 15.1 10.1 3.6 46 5.2 SE 19 24 10 13 1021.8 1021.8 0.0
22/02:30am 14.9 9.9 3.4 46 5.2 SE 19 24 10 13 1021.8 1021.8 0.0
22/02:00am 14.9 10.2 3.4 46 5.2 SE 17 20 9 11 1022.0 1022.0 0.0
22/01:30am 15.7 10.7 3.8 45 5.5 SSE 19 24 10 13 1022.1 1022.1 0.0
22/01:00am 16.6 11.6 4.6 45 5.6 SSE 20 26 11 14 1022.2 1022.2 0.0
22/12:30am 16.9 12.2 6.1 49 5.3 SSE 20 26 11 14 1022.1 1022.1 0.0
22/12:00am 17.1 12.8 6.9 51 5.0 SSE 19 26 10 14 1022.2 1022.2 0.0
 
Date/Time
WST
Temp
°C
App
Temp
°C
Dew
Point
°C
Rel
Hum
%
Delta-T
°C
Wind Press
QNH
hPa
Press
MSL
hPa
Rain since
9am
mm
Dir  Spd
km/h
Gust
km/h
Spd
kts
Gust
kts
21/11:30pm 17.2 13.0 7.3 52 5.0 SSE 19 24 10 13 1022.2 1022.2 0.0
21/11:00pm 17.2 13.2 8.1 55 4.6 SSE 19 26 10 14 1022.2 1022.2 0.0
21/10:30pm 17.0 13.0 9.2 60 4.1 SSE 20 28 11 15 1022.1 1022.1 0.0
21/10:00pm 17.3 13.2 10.0 62 3.8 SSE 22 30 12 16 1022.0 1022.0 0.0
21/09:30pm 17.9 13.3 11.0 64 3.7 SSE 26 35 14 19 1022.0 1022.0 0.0
21/09:00pm 18.2 13.3 11.3 64 3.7 S 28 37 15 20 1021.9 1021.9 0.0
21/08:30pm 18.3 13.2 10.7 61 4.1 S 28 44 15 24 1022.0 1022.0 0.0
21/08:00pm 18.3 13.2 10.7 61 4.1 S 28 43 15 23 1021.7 1021.7 0.0
21/07:30pm 18.4 12.5 10.3 59 4.3 S 32 44 17 24 1021.5 1021.5 0.0
21/07:00pm 18.8 12.3 9.0 53 5.1 S 33 46 18 25 1021.3 1021.3 0.0
21/06:30pm 18.9 14.0 8.6 51 5.4 S 24 37 13 20 1021.0 1021.0 0.0
21/06:00pm 19.4 13.2 7.8 47 5.9 S 30 43 16 23 1020.8 1020.8 0.0
21/05:30pm 20.6 13.9 7.2 42 6.9 S 32 44 17 24 1020.3 1020.3 0.0
21/05:00pm 22.7 15.5 5.2 32 8.7 S 32 44 17 24 1020.1 1020.1 0.0
21/04:30pm 23.4 15.9 1.1 23 10.4 SSW 30 39 16 21 1019.9 1019.9 0.0
21/04:00pm 25.7 19.1 -6.9 11 13.2 SSE 20 33 11 18 1019.9 1019.9 0.0
21/03:30pm 25.7 19.3 -6.9 11 13.3 ESE 19 30 10 16 1020.2 1020.2 0.0
21/03:00pm 25.6 19.2 -7.0 11 13.2 SE 19 32 10 17 1020.5 1020.5 0.0
21/02:30pm 25.7 18.4 -5.8 12 13.1 SE 24 43 13 23 1020.7 1020.7 0.0
21/02:00pm 25.7 18.8 -5.8 12 13.1 ESE 22 33 12 18 1020.9 1020.9 0.0
21/01:30pm 24.6 17.3 -6.7 12 12.7 SE 24 35 13 19 1021.3 1021.3 0.0
21/01:00pm 24.9 18.5 -5.4 13 12.6 E 20 32 11 17 1021.5 1021.5 0.0
21/12:30pm 24.3 16.7 -5.8 13 12.4 ESE 26 37 14 20 1021.9 1021.9 0.0
21/12:00pm 23.5 15.9 -5.5 14 11.8 ESE 26 39 14 21 1022.4 1022.4 0.0
21/11:30am 23.2 15.4 -4.0 16 11.4 ESE 28 43 15 23 1022.3 1022.3 0.0
21/11:00am 22.4 14.7 -3.1 18 10.8 E 28 41 15 22 1022.6 1022.6 0.0
21/10:30am 21.0 13.9 -0.9 23 9.6 E 26 37 14 20 1023.0 1022.9 0.0
21/10:00am 20.6 13.3 -0.1 25 9.1 ESE 28 39 15 21 1023.2 1023.1 0.0
21/09:30am 19.9 12.9 -0.7 25 9.0 ESE 26 39 14 21 1023.3 1023.2 0.0
21/09:00am 19.1 11.6 1.1 30 8.0 ESE 30 39 16 21 1023.5 1023.4 0.0
21/08:30am 18.1 11.0 1.6 33 7.4 ESE 28 39 15 21 1023.7 1023.6 0.0
21/08:00am 17.5 10.2 2.3 36 6.9 ESE 30 41 16 22 1023.6 1023.5 0.0
21/07:30am 16.7 10.3 3.1 40 6.2 ESE 26 37 14 20 1023.4 1023.3 0.0
21/07:00am 15.1 10.0 4.2 48 5.0 ESE 20 28 11 15 1023.2 1023.1 0.0
21/06:30am 13.3 8.7 3.9 53 4.3 ESE 17 22 9 12 1023.1 1023.0 0.0
21/06:00am 12.7 7.8 3.9 55 3.9 ESE 19 22 10 12 1022.9 1022.8 0.0
21/05:30am 12.2 7.4 4.7 60 3.4 ESE 19 26 10 14 1022.7 1022.7 0.0
21/05:00am 11.3 7.5 5.6 68 2.6 SE 15 19 8 10 1022.4 1022.4 0.0
21/04:30am 11.9 7.7 5.8 66 2.8 SE 17 20 9 11 1022.1 1022.1 0.0
21/04:00am 12.4 8.2 5.6 63 3.2 SE 17 24 9 13 1021.8 1021.8 0.0

Other formats

Comma delimited format used in spreadsheet applications
http://www.bom.gov.au/fwo/IDW60801/IDW60801.95402.axf

JavaScript Object Notation format (JSON) in row-major order
http://www.bom.gov.au/fwo/IDW60801/IDW60801.95402.json

Data quality

Most of these data are generated automatically and are frequently updated. Quality checks on data are not normally performed. It is possible for incorrect values to appear. Refer to information at About Latest Weather Observations and please check the disclaimer before using these data.